createdAt,value
2024-01-10T00:00:12.911Z,66.42
2024-01-10T00:03:10.788Z,66.45
2024-01-10T00:06:08.404Z,66.53
2024-01-10T00:09:06.071Z,66.57
2024-01-10T00:12:03.528Z,66.60
2024-01-10T00:15:01.146Z,66.63
2024-01-10T00:17:58.880Z,66.60
2024-01-10T00:20:56.464Z,66.60
2024-01-10T00:23:54.248Z,66.71
2024-01-10T00:26:51.830Z,66.74
2024-01-10T00:29:49.250Z,66.74
2024-01-10T00:32:46.984Z,66.74
2024-01-10T00:35:44.768Z,66.78
2024-01-10T00:38:42.203Z,66.77
2024-01-10T00:41:39.872Z,66.78
2024-01-10T00:44:37.795Z,66.70
2024-01-10T00:47:35.546Z,66.79
2024-01-10T00:50:32.970Z,66.77
2024-01-10T00:53:32.335Z,66.80
2024-01-10T00:56:32.038Z,66.79
2024-01-10T00:59:32.468Z,66.83
2024-01-10T01:02:31.474Z,66.86
2024-01-10T01:05:31.530Z,66.90
2024-01-10T01:08:31.096Z,66.92
2024-01-10T01:11:30.144Z,66.92
2024-01-10T01:14:28.990Z,66.95
2024-01-10T01:17:28.261Z,67.02
2024-01-10T01:20:29.657Z,67.02
2024-01-10T01:23:38.724Z,67.10
2024-01-10T01:26:39.440Z,67.18
2024-01-10T01:29:37.127Z,67.33
2024-01-10T01:32:34.520Z,67.41
2024-01-10T01:35:33.527Z,67.41
2024-01-10T01:38:32.332Z,67.52
2024-01-10T01:41:31.639Z,67.51
2024-01-10T01:44:30.756Z,67.57
2024-01-10T01:47:30.457Z,67.65
2024-01-10T01:50:29.295Z,67.78
2024-01-10T01:53:28.663Z,67.84
2024-01-10T01:56:27.429Z,67.87
2024-01-10T01:59:25.141Z,67.82
2024-01-10T02:02:22.655Z,67.86
2024-01-10T02:05:20.584Z,67.80
2024-01-10T02:08:18.084Z,67.82
2024-01-10T02:11:16.187Z,67.87
2024-01-10T02:14:13.809Z,67.90
2024-01-10T02:17:12.154Z,67.90
2024-01-10T02:20:09.685Z,67.90
2024-01-10T02:23:07.645Z,67.93
2024-01-10T02:26:05.192Z,67.91
2024-01-10T02:29:02.991Z,68.03
2024-01-10T02:32:00.841Z,68.03
2024-01-10T02:34:58.814Z,68.19
2024-01-10T02:37:56.289Z,68.20
2024-01-10T02:40:54.107Z,68.23
2024-01-10T02:43:51.520Z,68.29
2024-01-10T02:46:49.376Z,68.29
2024-01-10T02:49:46.857Z,68.34
2024-01-10T02:52:44.902Z,68.33
2024-01-10T02:55:42.900Z,68.37
2024-01-10T02:58:40.860Z,68.43
2024-01-10T03:01:38.313Z,68.43
2024-01-10T03:04:36.139Z,68.47
2024-01-10T03:07:33.563Z,68.41
2024-01-10T03:10:31.662Z,68.47
2024-01-10T03:13:29.082Z,68.53
2024-01-10T03:16:27.055Z,68.49
2024-01-10T03:19:24.430Z,68.49
2024-01-10T03:22:22.213Z,68.45
2024-01-10T03:25:19.630Z,68.50
2024-01-10T03:28:17.475Z,68.53
2024-01-10T03:31:14.863Z,68.61
2024-01-10T03:34:12.888Z,68.68
2024-01-10T03:37:10.330Z,68.70
2024-01-10T03:40:08.263Z,68.70
2024-01-10T03:43:06.126Z,68.69
2024-01-10T03:46:03.515Z,68.69
2024-01-10T03:49:01.305Z,68.81
2024-01-10T03:51:58.745Z,68.88
2024-01-10T03:54:56.565Z,69.00
2024-01-10T03:57:53.956Z,69.00
2024-01-10T04:00:51.926Z,69.03
2024-01-10T04:03:49.847Z,69.12
2024-01-10T04:06:47.461Z,69.20
2024-01-10T04:09:45.700Z,69.33
2024-01-10T04:12:43.785Z,69.42
2024-01-10T04:15:41.207Z,69.50
2024-01-10T04:18:39.151Z,69.54
2024-01-10T04:21:36.642Z,69.60
2024-01-10T04:24:34.440Z,69.69
2024-01-10T04:27:31.872Z,69.73
2024-01-10T04:30:29.736Z,69.82
2024-01-10T04:33:27.756Z,69.90
2024-01-10T04:36:25.265Z,69.92
2024-01-10T04:39:23.092Z,69.99
2024-01-10T04:42:20.451Z,70.07
2024-01-10T04:45:18.413Z,70.09
2024-01-10T04:48:15.941Z,70.16
2024-01-10T04:51:13.847Z,70.28
2024-01-10T04:54:11.244Z,70.30
2024-01-10T04:57:09.855Z,70.30
2024-01-10T05:00:07.877Z,70.32
2024-01-10T05:03:05.910Z,70.40
2024-01-10T05:06:03.641Z,70.33
2024-01-10T05:09:01.690Z,70.34
2024-01-10T05:11:59.398Z,70.35
2024-01-10T05:14:56.789Z,70.38
2024-01-10T05:17:54.892Z,70.43
2024-01-10T05:20:52.624Z,70.47
2024-01-10T05:23:50.114Z,70.50
2024-01-10T05:26:48.077Z,70.57
2024-01-10T05:29:45.478Z,70.60
2024-01-10T05:32:43.495Z,70.64
2024-01-10T05:35:40.915Z,70.62
2024-01-10T05:38:38.606Z,70.60
2024-01-10T05:41:37.679Z,70.57
2024-01-10T05:44:36.822Z,70.49
2024-01-10T05:47:34.344Z,70.42
2024-01-10T05:50:32.395Z,70.24
2024-01-10T05:53:30.054Z,70.11
2024-01-10T05:56:29.510Z,70.03
2024-01-10T05:59:29.560Z,69.88
2024-01-10T06:02:28.540Z,69.78
2024-01-10T06:05:26.138Z,69.70
2024-01-10T06:08:26.959Z,69.68
2024-01-10T06:11:24.513Z,69.49
2024-01-10T06:14:22.494Z,69.34
2024-01-10T06:17:20.070Z,69.38
2024-01-10T06:20:18.128Z,69.28
2024-01-10T06:23:15.603Z,69.29
2024-01-10T06:26:13.632Z,69.25
2024-01-10T06:29:11.140Z,69.18
2024-01-10T06:32:09.314Z,69.17
2024-01-10T06:35:06.897Z,69.18
2024-01-10T06:38:05.653Z,69.12
2024-01-10T06:41:03.220Z,69.20
2024-01-10T06:44:04.919Z,69.25
2024-01-10T06:47:02.528Z,69.17
2024-01-10T06:50:00.391Z,69.20
2024-01-10T06:52:58.540Z,69.20
2024-01-10T06:55:56.020Z,69.20
2024-01-10T06:58:56.077Z,69.21
2024-01-10T07:01:53.511Z,69.24
2024-01-10T07:04:51.912Z,69.34
2024-01-10T07:07:51.292Z,69.47
2024-01-10T07:10:49.418Z,69.66
2024-01-10T07:13:48.193Z,69.70
2024-01-10T07:16:48.689Z,69.66
2024-01-10T07:19:47.806Z,69.63
2024-01-10T07:22:45.812Z,69.57
2024-01-10T07:25:43.360Z,69.61
2024-01-10T07:28:40.830Z,69.59
2024-01-10T07:31:38.815Z,69.65
2024-01-10T07:34:36.504Z,69.76
2024-01-10T07:37:33.947Z,69.71
2024-01-10T07:40:31.459Z,69.71
2024-01-10T07:43:30.341Z,69.76
2024-01-10T07:46:28.363Z,69.82
2024-01-10T07:49:26.228Z,69.89
2024-01-10T07:52:25.420Z,69.89
2024-01-10T07:55:23.604Z,69.90
2024-01-10T07:58:21.049Z,69.97
2024-01-10T08:01:18.726Z,70.00
2024-01-10T08:04:16.697Z,69.98
2024-01-10T08:07:14.945Z,69.98
2024-01-10T08:10:12.360Z,70.00
2024-01-10T08:13:10.487Z,70.10
2024-01-10T08:16:10.353Z,70.11
2024-01-10T08:19:08.348Z,70.11
2024-01-10T08:22:05.820Z,70.18
2024-01-10T08:25:04.641Z,70.21
2024-01-10T08:28:02.117Z,70.28
2024-01-10T08:31:04.386Z,70.19
2024-01-10T08:34:04.006Z,70.05
2024-01-10T08:37:01.907Z,69.92
2024-01-10T08:40:00.173Z,69.90
2024-01-10T08:42:58.086Z,69.90
2024-01-10T08:45:55.480Z,69.88
2024-01-10T08:48:54.299Z,69.70
2024-01-10T08:51:51.870Z,69.50
2024-01-10T08:54:50.168Z,69.53
2024-01-10T08:57:48.283Z,69.42
2024-01-10T09:00:46.261Z,69.26
2024-01-10T09:03:43.739Z,69.28
2024-01-10T09:06:41.747Z,69.23
2024-01-10T09:09:39.290Z,69.01
2024-01-10T09:12:37.134Z,68.94
2024-01-10T09:15:34.550Z,68.85
2024-01-10T09:18:32.484Z,68.76
2024-01-10T09:21:29.905Z,68.48
2024-01-10T09:24:29.930Z,68.45
2024-01-10T09:27:27.847Z,68.23
2024-01-10T09:30:25.632Z,68.15
2024-01-10T09:33:24.098Z,68.25
2024-01-10T09:36:22.091Z,68.23
2024-01-10T09:39:19.523Z,67.84
2024-01-10T09:42:17.524Z,67.83
2024-01-10T09:45:15.138Z,67.71
2024-01-10T09:48:13.206Z,67.63
2024-01-10T09:51:11.057Z,67.67
2024-01-10T09:54:08.788Z,67.42
2024-01-10T09:57:07.005Z,67.23
2024-01-10T10:00:06.980Z,66.98
2024-01-10T10:03:04.616Z,66.82
2024-01-10T10:06:02.513Z,66.77
2024-01-10T10:09:00.080Z,66.60
2024-01-10T10:11:58.682Z,66.58
2024-01-10T10:14:56.533Z,66.29
2024-01-10T10:17:55.367Z,66.06
2024-01-10T10:20:53.373Z,66.00
2024-01-10T10:23:50.863Z,65.99
2024-01-10T10:26:48.657Z,65.87
2024-01-10T10:29:48.462Z,65.83
2024-01-10T10:32:46.820Z,65.72
2024-01-10T10:35:47.324Z,65.66
2024-01-10T10:38:47.034Z,65.49
2024-01-10T10:41:44.507Z,65.50
2024-01-10T10:44:43.246Z,65.48
2024-01-10T10:47:41.641Z,65.53
2024-01-10T10:50:40.478Z,65.41
2024-01-10T10:53:38.093Z,65.34
2024-01-10T10:56:36.455Z,65.39
2024-01-10T10:59:34.431Z,65.20
2024-01-10T11:02:32.557Z,65.03
2024-01-10T11:05:31.202Z,65.06
2024-01-10T11:08:29.219Z,65.04
2024-01-10T11:11:26.845Z,65.01
2024-01-10T11:14:26.279Z,65.17
2024-01-10T11:17:24.698Z,65.19
2024-01-10T11:20:22.304Z,65.20
2024-01-10T11:23:20.224Z,65.11
2024-01-10T11:26:17.821Z,65.07
2024-01-10T11:29:15.813Z,65.13
2024-01-10T11:32:13.731Z,65.09
2024-01-10T11:35:12.788Z,65.06
2024-01-10T11:38:12.216Z,64.99
2024-01-10T11:41:10.880Z,64.85
2024-01-10T11:44:08.799Z,64.75
2024-01-10T11:47:06.502Z,64.66
2024-01-10T11:50:05.217Z,64.69
2024-01-10T11:53:04.329Z,64.63
2024-01-10T11:56:02.688Z,64.71
2024-01-10T11:59:00.735Z,64.75
2024-01-10T12:01:58.773Z,64.64
2024-01-10T12:04:56.428Z,64.61
2024-01-10T12:07:54.654Z,64.54
2024-01-10T12:10:52.183Z,64.56
2024-01-10T12:13:50.217Z,64.40
2024-01-10T12:16:47.702Z,64.27
2024-01-10T12:19:47.357Z,64.25
2024-01-10T12:22:45.212Z,64.13
2024-01-10T12:25:43.130Z,64.00
2024-01-10T12:28:40.561Z,63.94
2024-01-10T12:31:38.512Z,64.05
2024-01-10T12:34:36.042Z,64.01
2024-01-10T12:37:33.955Z,64.04
2024-01-10T12:40:31.604Z,63.92
2024-01-10T12:43:29.505Z,63.75
2024-01-10T12:46:26.935Z,63.81
2024-01-10T12:49:24.411Z,63.73
2024-01-10T12:52:24.223Z,63.79
2024-01-10T12:55:23.314Z,63.73
2024-01-10T12:58:20.898Z,63.72
2024-01-10T13:01:18.695Z,63.58
2024-01-10T13:04:16.176Z,63.64
2024-01-10T13:07:14.100Z,63.65
2024-01-10T13:10:11.472Z,63.60
2024-01-10T13:13:09.360Z,63.63
2024-01-10T13:16:07.343Z,63.59
2024-01-10T13:19:04.986Z,63.47
2024-01-10T13:22:05.592Z,63.60
2024-01-10T13:25:04.828Z,63.68
2024-01-10T13:28:02.658Z,63.62
2024-01-10T13:31:00.205Z,63.60
2024-01-10T13:33:58.335Z,63.66
2024-01-10T13:36:56.394Z,63.63
2024-01-10T13:39:53.781Z,63.88
2024-01-10T13:42:51.767Z,64.05
2024-01-10T13:45:49.184Z,64.23
2024-01-10T13:48:47.107Z,64.34
2024-01-10T13:51:47.876Z,64.42
2024-01-10T13:54:45.650Z,64.44
2024-01-10T13:57:43.585Z,64.40
2024-01-10T14:00:44.600Z,64.38
2024-01-10T14:03:42.885Z,64.48
2024-01-10T14:06:40.348Z,64.66
2024-01-10T14:09:38.451Z,64.79
2024-01-10T14:12:35.882Z,64.86
2024-01-10T14:15:33.696Z,64.97
2024-01-10T14:18:31.158Z,65.12
2024-01-10T14:21:29.135Z,65.20
2024-01-10T14:24:26.933Z,65.30
2024-01-10T14:27:24.775Z,65.38
2024-01-10T14:30:22.584Z,65.43
2024-01-10T14:33:20.485Z,65.53
2024-01-10T14:36:18.146Z,65.62
2024-01-10T14:39:16.852Z,65.70
2024-01-10T14:42:14.847Z,65.80
2024-01-10T14:45:13.112Z,65.90
2024-01-10T14:48:10.596Z,65.93
2024-01-10T14:51:08.560Z,66.00
2024-01-10T14:54:05.944Z,66.12
2024-01-10T14:57:04.705Z,66.25
2024-01-10T15:00:02.235Z,66.36
2024-01-10T15:03:02.832Z,66.47
2024-01-10T15:06:04.041Z,66.53
2024-01-10T15:09:04.476Z,66.64
2024-01-10T15:12:02.129Z,66.76
2024-01-10T15:15:01.545Z,66.86
2024-01-10T15:17:59.047Z,66.95
2024-01-10T15:20:57.007Z,67.03
2024-01-10T15:23:54.674Z,67.11
2024-01-10T15:26:53.933Z,67.20
2024-01-10T15:29:56.796Z,67.27
2024-01-10T15:33:00.639Z,67.32
2024-01-10T15:35:59.435Z,67.43
2024-01-10T15:38:57.026Z,67.50
2024-01-10T15:41:55.377Z,67.58
2024-01-10T15:44:52.991Z,67.61
2024-01-10T15:47:50.838Z,67.70
2024-01-10T15:50:48.283Z,67.73
2024-01-10T15:53:46.569Z,67.82
2024-01-10T15:56:44.509Z,67.90
2024-01-10T15:59:42.924Z,67.90
2024-01-10T16:02:41.835Z,67.97
2024-01-10T16:05:39.349Z,68.02
2024-01-10T16:08:37.218Z,68.16
2024-01-10T16:11:34.670Z,68.20
2024-01-10T16:14:33.481Z,68.22
2024-01-10T16:17:32.193Z,68.30
2024-01-10T16:20:29.785Z,68.38
2024-01-10T16:23:27.896Z,68.44
2024-01-10T16:26:25.386Z,68.53
2024-01-10T16:29:23.264Z,68.63
2024-01-10T16:32:20.719Z,68.71
2024-01-10T16:35:18.968Z,68.79
2024-01-10T16:38:16.504Z,68.89
2024-01-10T16:41:14.903Z,68.96
2024-01-10T16:44:12.408Z,69.03
2024-01-10T16:47:10.794Z,69.10
2024-01-10T16:50:08.609Z,69.15
2024-01-10T16:53:06.608Z,69.20
2024-01-10T16:56:04.734Z,69.25
2024-01-10T16:59:02.597Z,69.32
2024-01-10T17:02:00.831Z,69.42
2024-01-10T17:04:58.910Z,69.53
2024-01-10T17:07:57.308Z,69.61
2024-01-10T17:10:55.426Z,69.70
2024-01-10T17:13:53.335Z,69.78
2024-01-10T17:16:50.996Z,69.86
2024-01-10T17:19:49.700Z,69.92
2024-01-10T17:22:47.475Z,70.03
2024-01-10T17:25:45.547Z,70.08
2024-01-10T17:28:43.240Z,70.18
2024-01-10T17:31:41.492Z,70.23
2024-01-10T17:34:39.941Z,70.28
2024-01-10T17:37:37.961Z,70.30
2024-01-10T17:40:35.366Z,70.38
2024-01-10T17:43:33.459Z,70.40
2024-01-10T17:46:32.524Z,70.40
2024-01-10T17:49:30.450Z,70.39
2024-01-10T17:52:28.098Z,70.40
2024-01-10T17:55:25.943Z,70.41
2024-01-10T17:58:24.125Z,70.47
2024-01-10T18:01:23.685Z,70.46
2024-01-10T18:04:21.801Z,70.41
2024-01-10T18:07:19.862Z,70.40
2024-01-10T18:10:17.294Z,70.38
2024-01-10T18:13:16.338Z,70.33
2024-01-10T18:16:14.140Z,70.30
2024-01-10T18:19:13.692Z,70.27
2024-01-10T18:22:11.382Z,70.29
2024-01-10T18:25:08.920Z,70.26
2024-01-10T18:28:06.945Z,70.22
2024-01-10T18:31:06.034Z,70.26
2024-01-10T18:34:04.703Z,70.29
2024-01-10T18:37:02.364Z,70.26
2024-01-10T18:40:00.104Z,70.28
2024-01-10T18:42:57.546Z,70.27
2024-01-10T18:45:55.910Z,70.30
2024-01-10T18:48:53.375Z,70.30
2024-01-10T18:51:50.977Z,70.30
2024-01-10T18:54:48.768Z,70.35
2024-01-10T18:57:48.915Z,70.36
2024-01-10T19:00:47.224Z,70.40
2024-01-10T19:03:45.078Z,70.40
2024-01-10T19:06:43.741Z,70.40
2024-01-10T19:09:41.512Z,70.42
2024-01-10T19:12:39.581Z,70.50
2024-01-10T19:15:37.313Z,70.49
2024-01-10T19:18:35.512Z,70.50
2024-01-10T19:21:33.547Z,70.50
2024-01-10T19:24:31.256Z,70.51
2024-01-10T19:27:29.279Z,70.50
2024-01-10T19:30:26.959Z,70.58
2024-01-10T19:33:25.789Z,70.60
2024-01-10T19:36:27.004Z,70.60
2024-01-10T19:39:26.341Z,70.68
2024-01-10T19:42:24.006Z,70.77
2024-01-10T19:45:23.349Z,70.82
2024-01-10T19:48:21.957Z,70.89
2024-01-10T19:51:20.182Z,70.90
2024-01-10T19:54:18.274Z,70.94
2024-01-10T19:57:15.931Z,71.01
2024-01-10T20:00:13.945Z,71.09
2024-01-10T20:03:12.248Z,71.10
2024-01-10T20:06:10.599Z,71.14
2024-01-10T20:09:09.420Z,71.19
2024-01-10T20:12:07.342Z,71.25
2024-01-10T20:15:05.342Z,71.38
2024-01-10T20:18:03.262Z,71.46
2024-01-10T20:21:01.353Z,71.54
2024-01-10T20:23:59.049Z,71.64
2024-01-10T20:26:56.748Z,71.70
2024-01-10T20:29:54.804Z,71.78
2024-01-10T20:32:52.718Z,71.82
2024-01-10T20:35:51.518Z,71.92
2024-01-10T20:38:49.213Z,71.94
2024-01-10T20:41:47.928Z,72.03
2024-01-10T20:44:48.361Z,72.10
2024-01-10T20:47:46.580Z,72.14
2024-01-10T20:50:44.423Z,72.21
2024-01-10T20:53:42.614Z,72.29
2024-01-10T20:56:40.398Z,72.30
2024-01-10T20:59:38.597Z,72.25
2024-01-10T21:02:36.390Z,72.28
2024-01-10T21:05:34.653Z,72.42
2024-01-10T21:08:32.600Z,72.51
2024-01-10T21:11:30.821Z,72.51
2024-01-10T21:14:28.596Z,72.56
2024-01-10T21:17:27.586Z,72.62
2024-01-10T21:20:25.377Z,72.70
2024-01-10T21:23:23.513Z,72.70
2024-01-10T21:26:21.238Z,72.70
2024-01-10T21:29:19.346Z,72.70
2024-01-10T21:32:19.508Z,72.70
2024-01-10T21:35:17.672Z,72.72
2024-01-10T21:38:15.425Z,72.71
2024-01-10T21:41:14.181Z,72.75
2024-01-10T21:44:11.973Z,72.80
2024-01-10T21:47:10.629Z,72.80
2024-01-10T21:50:10.556Z,72.72
2024-01-10T21:53:09.244Z,72.79
2024-01-10T21:56:10.279Z,72.80
2024-01-10T21:59:08.404Z,72.80
2024-01-10T22:02:06.697Z,72.81
2024-01-10T22:05:05.749Z,72.82
2024-01-10T22:08:05.824Z,72.80
2024-01-10T22:11:05.030Z,72.88
2024-01-10T22:14:03.260Z,72.91
2024-01-10T22:17:01.228Z,72.96
2024-01-10T22:19:59.329Z,72.94
2024-01-10T22:22:57.024Z,72.92
2024-01-10T22:25:56.385Z,72.96
2024-01-10T22:28:54.240Z,73.02
2024-01-10T22:31:52.411Z,73.03
2024-01-10T22:34:50.463Z,73.07
2024-01-10T22:37:49.090Z,73.10
2024-01-10T22:40:46.765Z,73.12
2024-01-10T22:43:44.729Z,73.13
2024-01-10T22:46:42.749Z,73.11
2024-01-10T22:49:40.386Z,73.15
2024-01-10T22:52:39.640Z,73.10
2024-01-10T22:55:37.744Z,73.19
2024-01-10T22:58:35.711Z,73.22
2024-01-10T23:01:33.430Z,73.28
2024-01-10T23:04:31.540Z,73.30
2024-01-10T23:07:29.296Z,73.33
2024-01-10T23:10:27.417Z,73.33
2024-01-10T23:13:25.386Z,73.35
2024-01-10T23:16:23.958Z,73.33
2024-01-10T23:19:22.071Z,73.27
2024-01-10T23:22:20.320Z,73.22
2024-01-10T23:25:18.808Z,73.20
2024-01-10T23:28:16.528Z,73.26
2024-01-10T23:31:14.530Z,73.35
2024-01-10T23:34:14.388Z,73.39
2024-01-10T23:37:12.733Z,73.41
2024-01-10T23:40:11.009Z,73.47
2024-01-10T23:43:15.712Z,73.51
2024-01-10T23:46:21.985Z,73.51
2024-01-10T23:49:19.744Z,73.57
2024-01-10T23:52:17.731Z,73.60
2024-01-10T23:55:15.386Z,73.62
2024-01-10T23:58:13.257Z,73.69
